sensor_id;sensor_type;location;lat;lon;timestamp;temperature;humidity
11136;DHT22;5622;50.840;4.948;2022-07-04T00:01:46;16.40;99.90
11136;DHT22;5622;50.840;4.948;2022-07-04T00:04:13;16.40;99.90
11136;DHT22;5622;50.840;4.948;2022-07-04T00:06:40;16.40;99.90
11136;DHT22;5622;50.840;4.948;2022-07-04T00:09:08;16.40;99.90
11136;DHT22;5622;50.840;4.948;2022-07-04T00:11:35;16.40;99.90
11136;DHT22;5622;50.840;4.948;2022-07-04T00:14:02;16.30;99.90
11136;DHT22;5622;50.840;4.948;2022-07-04T00:16:29;16.30;99.90
11136;DHT22;5622;50.840;4.948;2022-07-04T00:18:57;16.20;99.90
11136;DHT22;5622;50.840;4.948;2022-07-04T00:21:24;16.20;99.90
11136;DHT22;5622;50.840;4.948;2022-07-04T00:23:51;16.10;99.90
11136;DHT22;5622;50.840;4.948;2022-07-04T00:26:19;16.10;99.90
11136;DHT22;5622;50.840;4.948;2022-07-04T00:28:46;16.10;99.90
11136;DHT22;5622;50.840;4.948;2022-07-04T00:31:13;16.00;99.90
11136;DHT22;5622;50.840;4.948;2022-07-04T00:33:40;16.00;99.90
11136;DHT22;5622;50.840;4.948;2022-07-04T00:36:07;16.00;99.90
11136;DHT22;5622;50.840;4.948;2022-07-04T00:38:34;16.10;99.90
11136;DHT22;5622;50.840;4.948;2022-07-04T00:41:01;16.00;99.90
11136;DHT22;5622;50.840;4.948;2022-07-04T00:43:30;16.00;99.90
11136;DHT22;5622;50.840;4.948;2022-07-04T00:45:57;16.00;99.90
11136;DHT22;5622;50.840;4.948;2022-07-04T00:48:24;16.00;99.90
11136;DHT22;5622;50.840;4.948;2022-07-04T00:50:51;16.00;99.90
11136;DHT22;5622;50.840;4.948;2022-07-04T00:53:19;15.90;99.90
11136;DHT22;5622;50.840;4.948;2022-07-04T00:55:49;16.00;99.90
11136;DHT22;5622;50.840;4.948;2022-07-04T00:58:19;16.00;99.90
11136;DHT22;5622;50.840;4.948;2022-07-04T01:00:48;16.00;99.90
11136;DHT22;5622;50.840;4.948;2022-07-04T01:03:15;15.90;99.90
11136;DHT22;5622;50.840;4.948;2022-07-04T01:05:43;15.90;99.90
11136;DHT22;5622;50.840;4.948;2022-07-04T01:08:11;15.80;99.90
11136;DHT22;5622;50.840;4.948;2022-07-04T01:10:38;15.70;99.90
11136;DHT22;5622;50.840;4.948;2022-07-04T01:13:05;15.70;99.90
11136;DHT22;5622;50.840;4.948;2022-07-04T01:15:54;15.50;99.90
11136;DHT22;5622;50.840;4.948;2022-07-04T01:18:21;15.50;99.90
11136;DHT22;5622;50.840;4.948;2022-07-04T01:20:50;15.40;99.90
11136;DHT22;5622;50.840;4.948;2022-07-04T01:23:17;15.30;99.90
11136;DHT22;5622;50.840;4.948;2022-07-04T01:25:44;15.20;99.90
11136;DHT22;5622;50.840;4.948;2022-07-04T01:28:11;15.20;99.90
11136;DHT22;5622;50.840;4.948;2022-07-04T01:30:38;15.20;99.90
11136;DHT22;5622;50.840;4.948;2022-07-04T01:33:05;15.20;99.90
11136;DHT22;5622;50.840;4.948;2022-07-04T01:35:32;15.20;99.90
11136;DHT22;5622;50.840;4.948;2022-07-04T01:38:01;15.10;99.90
11136;DHT22;5622;50.840;4.948;2022-07-04T01:40:28;15.10;99.90
11136;DHT22;5622;50.840;4.948;2022-07-04T01:42:55;15.00;99.90
11136;DHT22;5622;50.840;4.948;2022-07-04T01:45:24;15.00;99.90
11136;DHT22;5622;50.840;4.948;2022-07-04T01:47:51;15.00;99.90
11136;DHT22;5622;50.840;4.948;2022-07-04T01:50:20;15.00;99.90
11136;DHT22;5622;50.840;4.948;2022-07-04T01:52:47;14.90;99.90
11136;DHT22;5622;50.840;4.948;2022-07-04T01:55:16;14.90;99.90
11136;DHT22;5622;50.840;4.948;2022-07-04T01:57:46;14.90;99.90
11136;DHT22;5622;50.840;4.948;2022-07-04T02:00:14;15.20;99.90
11136;DHT22;5622;50.840;4.948;2022-07-04T02:02:58;14.90;99.90
11136;DHT22;5622;50.840;4.948;2022-07-04T02:05:26;15.00;99.90
11136;DHT22;5622;50.840;4.948;2022-07-04T02:07:54;15.00;99.90
11136;DHT22;5622;50.840;4.948;2022-07-04T02:10:23;15.10;99.90
11136;DHT22;5622;50.840;4.948;2022-07-04T02:12:50;15.10;99.90
11136;DHT22;5622;50.840;4.948;2022-07-04T02:15:30;15.30;99.90
11136;DHT22;5622;50.840;4.948;2022-07-04T02:17:58;15.10;99.90
11136;DHT22;5622;50.840;4.948;2022-07-04T02:20:28;15.10;99.90
11136;DHT22;5622;50.840;4.948;2022-07-04T02:22:55;15.10;99.90
11136;DHT22;5622;50.840;4.948;2022-07-04T02:25:24;15.20;99.90
11136;DHT22;5622;50.840;4.948;2022-07-04T02:27:52;15.20;99.90
11136;DHT22;5622;50.840;4.948;2022-07-04T02:30:19;15.10;99.90
11136;DHT22;5622;50.840;4.948;2022-07-04T02:32:47;15.00;99.90
11136;DHT22;5622;50.840;4.948;2022-07-04T02:35:14;15.00;99.90
11136;DHT22;5622;50.840;4.948;2022-07-04T02:37:42;15.10;99.90
11136;DHT22;5622;50.840;4.948;2022-07-04T02:40:09;14.90;99.90
11136;DHT22;5622;50.840;4.948;2022-07-04T02:42:38;14.80;99.90
11136;DHT22;5622;50.840;4.948;2022-07-04T02:45:07;14.80;99.90
11136;DHT22;5622;50.840;4.948;2022-07-04T02:47:35;14.60;99.90
11136;DHT22;5622;50.840;4.948;2022-07-04T02:50:03;14.70;99.90
11136;DHT22;5622;50.840;4.948;2022-07-04T02:52:31;14.60;99.90
11136;DHT22;5622;50.840;4.948;2022-07-04T02:54:58;14.60;99.90
11136;DHT22;5622;50.840;4.948;2022-07-04T02:57:26;13.90;99.90
11136;DHT22;5622;50.840;4.948;2022-07-04T02:59:55;14.60;99.90
11136;DHT22;5622;50.840;4.948;2022-07-04T03:02:22;16.00;99.90
11136;DHT22;5622;50.840;4.948;2022-07-04T03:04:49;14.50;99.90
11136;DHT22;5622;50.840;4.948;2022-07-04T03:07:17;14.50;99.90
11136;DHT22;5622;50.840;4.948;2022-07-04T03:09:44;14.40;99.90
11136;DHT22;5622;50.840;4.948;2022-07-04T03:12:12;14.40;99.90
11136;DHT22;5622;50.840;4.948;2022-07-04T03:14:39;14.40;99.90
11136;DHT22;5622;50.840;4.948;2022-07-04T03:17:08;14.40;99.90
11136;DHT22;5622;50.840;4.948;2022-07-04T03:19:35;14.50;99.90
11136;DHT22;5622;50.840;4.948;2022-07-04T03:22:03;14.50;99.90
11136;DHT22;5622;50.840;4.948;2022-07-04T03:24:30;14.60;99.90
11136;DHT22;5622;50.840;4.948;2022-07-04T03:26:58;14.60;99.90
11136;DHT22;5622;50.840;4.948;2022-07-04T03:29:25;14.60;99.90
11136;DHT22;5622;50.840;4.948;2022-07-04T03:31:52;14.70;99.90
11136;DHT22;5622;50.840;4.948;2022-07-04T03:34:21;14.70;99.90
11136;DHT22;5622;50.840;4.948;2022-07-04T03:36:48;14.60;99.90
11136;DHT22;5622;50.840;4.948;2022-07-04T03:39:15;14.70;99.90
11136;DHT22;5622;50.840;4.948;2022-07-04T03:41:42;14.60;99.90
11136;DHT22;5622;50.840;4.948;2022-07-04T03:44:09;14.70;99.90
11136;DHT22;5622;50.840;4.948;2022-07-04T03:46:36;14.70;99.90
11136;DHT22;5622;50.840;4.948;2022-07-04T03:49:03;14.70;99.90
11136;DHT22;5622;50.840;4.948;2022-07-04T03:51:32;14.60;99.90
11136;DHT22;5622;50.840;4.948;2022-07-04T03:53:59;14.60;99.90
11136;DHT22;5622;50.840;4.948;2022-07-04T03:56:26;14.50;99.90
11136;DHT22;5622;50.840;4.948;2022-07-04T03:58:53;14.50;99.90
11136;DHT22;5622;50.840;4.948;2022-07-04T04:01:20;14.60;99.90
11136;DHT22;5622;50.840;4.948;2022-07-04T04:03:48;14.50;99.90
11136;DHT22;5622;50.840;4.948;2022-07-04T04:06:33;14.50;99.90
11136;DHT22;5622;50.840;4.948;2022-07-04T04:09:00;14.50;99.90
11136;DHT22;5622;50.840;4.948;2022-07-04T04:11:27;14.50;99.90
11136;DHT22;5622;50.840;4.948;2022-07-04T04:13:56;14.50;99.90
11136;DHT22;5622;50.840;4.948;2022-07-04T04:16:23;14.40;99.90
11136;DHT22;5622;50.840;4.948;2022-07-04T04:18:50;14.30;99.90
11136;DHT22;5622;50.840;4.948;2022-07-04T04:21:17;14.30;99.90
11136;DHT22;5622;50.840;4.948;2022-07-04T04:23:46;14.30;99.90
11136;DHT22;5622;50.840;4.948;2022-07-04T04:26:13;14.30;99.90
11136;DHT22;5622;50.840;4.948;2022-07-04T04:28:40;14.30;99.90
11136;DHT22;5622;50.840;4.948;2022-07-04T04:31:08;14.30;99.90
11136;DHT22;5622;50.840;4.948;2022-07-04T04:33:35;14.40;99.90
11136;DHT22;5622;50.840;4.948;2022-07-04T04:36:03;14.40;99.90
11136;DHT22;5622;50.840;4.948;2022-07-04T04:38:30;14.40;99.90
11136;DHT22;5622;50.840;4.948;2022-07-04T04:40:58;14.40;99.90
11136;DHT22;5622;50.840;4.948;2022-07-04T04:43:25;14.50;99.90
11136;DHT22;5622;50.840;4.948;2022-07-04T04:45:52;14.40;99.90
11136;DHT22;5622;50.840;4.948;2022-07-04T04:48:19;14.30;99.90
11136;DHT22;5622;50.840;4.948;2022-07-04T04:50:46;14.40;99.90
11136;DHT22;5622;50.840;4.948;2022-07-04T04:53:14;14.40;99.90
11136;DHT22;5622;50.840;4.948;2022-07-04T04:55:41;14.40;99.90
11136;DHT22;5622;50.840;4.948;2022-07-04T04:58:09;14.40;99.90
11136;DHT22;5622;50.840;4.948;2022-07-04T05:00:36;14.50;99.90
11136;DHT22;5622;50.840;4.948;2022-07-04T05:03:04;14.50;99.90
11136;DHT22;5622;50.840;4.948;2022-07-04T05:05:31;14.60;99.90
11136;DHT22;5622;50.840;4.948;2022-07-04T05:07:58;14.60;99.90
11136;DHT22;5622;50.840;4.948;2022-07-04T05:10:25;14.60;99.90
11136;DHT22;5622;50.840;4.948;2022-07-04T05:12:53;14.60;99.90
11136;DHT22;5622;50.840;4.948;2022-07-04T05:15:22;14.70;99.90
11136;DHT22;5622;50.840;4.948;2022-07-04T05:17:49;14.70;99.90
11136;DHT22;5622;50.840;4.948;2022-07-04T05:20:17;14.70;99.90
11136;DHT22;5622;50.840;4.948;2022-07-04T05:22:44;14.80;99.90
11136;DHT22;5622;50.840;4.948;2022-07-04T05:25:11;14.90;99.90
11136;DHT22;5622;50.840;4.948;2022-07-04T05:27:38;14.90;99.90
11136;DHT22;5622;50.840;4.948;2022-07-04T05:30:06;15.00;99.90
11136;DHT22;5622;50.840;4.948;2022-07-04T05:32:38;15.00;99.90
11136;DHT22;5622;50.840;4.948;2022-07-04T05:35:06;15.00;99.90
11136;DHT22;5622;50.840;4.948;2022-07-04T05:37:33;15.10;99.90
11136;DHT22;5622;50.840;4.948;2022-07-04T05:40:01;15.20;99.90
11136;DHT22;5622;50.840;4.948;2022-07-04T05:42:28;15.20;99.90
11136;DHT22;5622;50.840;4.948;2022-07-04T05:44:55;15.30;99.90
11136;DHT22;5622;50.840;4.948;2022-07-04T05:47:22;15.30;99.90
11136;DHT22;5622;50.840;4.948;2022-07-04T05:49:52;15.30;99.90
11136;DHT22;5622;50.840;4.948;2022-07-04T05:52:19;15.40;99.90
11136;DHT22;5622;50.840;4.948;2022-07-04T05:54:46;15.40;99.90
11136;DHT22;5622;50.840;4.948;2022-07-04T05:57:14;15.40;99.90
11136;DHT22;5622;50.840;4.948;2022-07-04T05:59:41;15.50;99.90
11136;DHT22;5622;50.840;4.948;2022-07-04T06:02:08;15.50;99.90
11136;DHT22;5622;50.840;4.948;2022-07-04T06:04:35;15.50;99.90
11136;DHT22;5622;50.840;4.948;2022-07-04T06:07:04;15.50;99.90
11136;DHT22;5622;50.840;4.948;2022-07-04T06:09:31;15.50;99.90
11136;DHT22;5622;50.840;4.948;2022-07-04T06:11:58;15.60;99.90
11136;DHT22;5622;50.840;4.948;2022-07-04T06:14:25;15.60;99.90
11136;DHT22;5622;50.840;4.948;2022-07-04T06:16:53;15.60;99.90
11136;DHT22;5622;50.840;4.948;2022-07-04T06:19:20;15.60;99.90
11136;DHT22;5622;50.840;4.948;2022-07-04T06:21:47;15.70;99.90
11136;DHT22;5622;50.840;4.948;2022-07-04T06:24:15;17.20;99.90
11136;DHT22;5622;50.840;4.948;2022-07-04T06:26:42;15.80;99.90
11136;DHT22;5622;50.840;4.948;2022-07-04T06:29:10;15.80;99.90
11136;DHT22;5622;50.840;4.948;2022-07-04T06:31:37;15.90;99.90
11136;DHT22;5622;50.840;4.948;2022-07-04T06:34:04;15.90;99.90
11136;DHT22;5622;50.840;4.948;2022-07-04T06:36:49;16.00;99.90
11136;DHT22;5622;50.840;4.948;2022-07-04T06:39:17;16.10;99.90
11136;DHT22;5622;50.840;4.948;2022-07-04T06:41:45;16.10;99.90
11136;DHT22;5622;50.840;4.948;2022-07-04T06:44:12;16.20;99.90
11136;DHT22;5622;50.840;4.948;2022-07-04T06:46:39;16.20;99.90
11136;DHT22;5622;50.840;4.948;2022-07-04T06:49:06;16.30;99.90
11136;DHT22;5622;50.840;4.948;2022-07-04T06:51:33;16.30;99.90
11136;DHT22;5622;50.840;4.948;2022-07-04T06:54:00;16.40;99.90
11136;DHT22;5622;50.840;4.948;2022-07-04T06:56:28;16.50;99.90
11136;DHT22;5622;50.840;4.948;2022-07-04T06:58:56;16.50;99.90
11136;DHT22;5622;50.840;4.948;2022-07-04T07:01:23;16.60;99.90
11136;DHT22;5622;50.840;4.948;2022-07-04T07:03:50;16.70;99.90
11136;DHT22;5622;50.840;4.948;2022-07-04T07:06:17;16.80;99.90
11136;DHT22;5622;50.840;4.948;2022-07-04T07:08:44;17.00;99.90
11136;DHT22;5622;50.840;4.948;2022-07-04T07:11:11;17.10;99.90
11136;DHT22;5622;50.840;4.948;2022-07-04T07:13:47;17.20;99.90
11136;DHT22;5622;50.840;4.948;2022-07-04T07:16:16;17.40;99.90
11136;DHT22;5622;50.840;4.948;2022-07-04T07:18:44;17.50;99.90
11136;DHT22;5622;50.840;4.948;2022-07-04T07:21:12;17.70;99.90
11136;DHT22;5622;50.840;4.948;2022-07-04T07:23:39;18.00;99.90
11136;DHT22;5622;50.840;4.948;2022-07-04T07:26:06;18.10;99.90
11136;DHT22;5622;50.840;4.948;2022-07-04T07:28:34;18.40;99.90
11136;DHT22;5622;50.840;4.948;2022-07-04T07:31:03;18.60;99.90
11136;DHT22;5622;50.840;4.948;2022-07-04T07:33:30;18.80;99.90
11136;DHT22;5622;50.840;4.948;2022-07-04T07:35:57;18.90;99.90
11136;DHT22;5622;50.840;4.948;2022-07-04T07:38:24;19.10;99.90
11136;DHT22;5622;50.840;4.948;2022-07-04T07:40:51;19.20;99.90
11136;DHT22;5622;50.840;4.948;2022-07-04T07:43:18;19.40;99.90
11136;DHT22;5622;50.840;4.948;2022-07-04T07:45:46;19.60;99.90
11136;DHT22;5622;50.840;4.948;2022-07-04T07:48:14;19.70;99.90
11136;DHT22;5622;50.840;4.948;2022-07-04T07:50:41;20.00;99.90
11136;DHT22;5622;50.840;4.948;2022-07-04T07:53:10;20.20;99.90
11136;DHT22;5622;50.840;4.948;2022-07-04T07:55:37;20.40;99.90
11136;DHT22;5622;50.840;4.948;2022-07-04T07:58:05;20.50;99.90
11136;DHT22;5622;50.840;4.948;2022-07-04T08:00:32;20.60;99.90
11136;DHT22;5622;50.840;4.948;2022-07-04T08:02:59;20.70;99.90
11136;DHT22;5622;50.840;4.948;2022-07-04T08:05:45;20.90;99.90
11136;DHT22;5622;50.840;4.948;2022-07-04T08:08:12;21.00;99.90
11136;DHT22;5622;50.840;4.948;2022-07-04T08:10:39;21.20;99.90
11136;DHT22;5622;50.840;4.948;2022-07-04T08:13:06;21.30;99.90
11136;DHT22;5622;50.840;4.948;2022-07-04T08:15:33;21.60;99.90
11136;DHT22;5622;50.840;4.948;2022-07-04T08:18:01;21.60;99.90
11136;DHT22;5622;50.840;4.948;2022-07-04T08:20:28;21.80;99.90
11136;DHT22;5622;50.840;4.948;2022-07-04T08:22:57;22.00;98.80
11136;DHT22;5622;50.840;4.948;2022-07-04T08:25:24;22.20;97.80
11136;DHT22;5622;50.840;4.948;2022-07-04T08:27:51;22.30;97.80
11136;DHT22;5622;50.840;4.948;2022-07-04T08:30:20;22.40;97.10
11136;DHT22;5622;50.840;4.948;2022-07-04T08:32:47;22.40;97.40
11136;DHT22;5622;50.840;4.948;2022-07-04T08:35:15;22.50;96.00
11136;DHT22;5622;50.840;4.948;2022-07-04T08:37:42;22.60;95.60
11136;DHT22;5622;50.840;4.948;2022-07-04T08:40:11;22.70;95.90
11136;DHT22;5622;50.840;4.948;2022-07-04T08:42:39;22.90;95.40
11136;DHT22;5622;50.840;4.948;2022-07-04T08:45:07;23.00;94.70
11136;DHT22;5622;50.840;4.948;2022-07-04T08:47:35;23.10;94.10
11136;DHT22;5622;50.840;4.948;2022-07-04T08:50:08;23.10;94.50
11136;DHT22;5622;50.840;4.948;2022-07-04T08:52:38;23.20;94.70
11136;DHT22;5622;50.840;4.948;2022-07-04T08:55:06;23.30;93.40
11136;DHT22;5622;50.840;4.948;2022-07-04T08:57:53;23.40;94.20
11136;DHT22;5622;50.840;4.948;2022-07-04T09:00:38;23.30;94.20
11136;DHT22;5622;50.840;4.948;2022-07-04T09:03:05;23.50;94.40
11136;DHT22;5622;50.840;4.948;2022-07-04T09:05:33;23.50;92.90
11136;DHT22;5622;50.840;4.948;2022-07-04T09:08:01;23.60;90.30
11136;DHT22;5622;50.840;4.948;2022-07-04T09:10:29;23.70;91.20
11136;DHT22;5622;50.840;4.948;2022-07-04T09:12:57;23.60;91.10
11136;DHT22;5622;50.840;4.948;2022-07-04T09:15:28;23.40;90.80
11136;DHT22;5622;50.840;4.948;2022-07-04T09:17:55;23.50;91.80
11136;DHT22;5622;50.840;4.948;2022-07-04T09:20:23;23.60;87.30
11136;DHT22;5622;50.840;4.948;2022-07-04T09:22:52;23.40;88.50
11136;DHT22;5622;50.840;4.948;2022-07-04T09:25:20;23.50;90.70
11136;DHT22;5622;50.840;4.948;2022-07-04T09:27:49;23.80;89.70
11136;DHT22;5622;50.840;4.948;2022-07-04T09:30:20;23.90;90.70
11136;DHT22;5622;50.840;4.948;2022-07-04T09:32:49;24.10;91.20
11136;DHT22;5622;50.840;4.948;2022-07-04T09:35:19;24.30;89.60
11136;DHT22;5622;50.840;4.948;2022-07-04T09:37:48;24.40;90.80
11136;DHT22;5622;50.840;4.948;2022-07-04T09:40:23;24.40;81.60
11136;DHT22;5622;50.840;4.948;2022-07-04T09:42:51;24.50;86.00
11136;DHT22;5622;50.840;4.948;2022-07-04T09:45:20;24.70;87.60
11136;DHT22;5622;50.840;4.948;2022-07-04T09:47:50;24.80;87.20
11136;DHT22;5622;50.840;4.948;2022-07-04T09:50:20;24.60;85.90
11136;DHT22;5622;50.840;4.948;2022-07-04T09:52:50;24.80;85.40
11136;DHT22;5622;50.840;4.948;2022-07-04T09:55:26;24.80;84.20
11136;DHT22;5622;50.840;4.948;2022-07-04T09:57:55;24.90;87.80
11136;DHT22;5622;50.840;4.948;2022-07-04T10:00:25;24.80;85.20
11136;DHT22;5622;50.840;4.948;2022-07-04T10:02:55;24.90;87.80
11136;DHT22;5622;50.840;4.948;2022-07-04T10:05:25;24.90;87.30
11136;DHT22;5622;50.840;4.948;2022-07-04T10:07:54;25.10;86.70
11136;DHT22;5622;50.840;4.948;2022-07-04T10:10:23;25.20;80.30
11136;DHT22;5622;50.840;4.948;2022-07-04T10:12:52;25.20;80.00
11136;DHT22;5622;50.840;4.948;2022-07-04T10:15:19;25.40;78.40
11136;DHT22;5622;50.840;4.948;2022-07-04T10:17:48;25.40;80.00
11136;DHT22;5622;50.840;4.948;2022-07-04T10:20:16;25.50;85.60
11136;DHT22;5622;50.840;4.948;2022-07-04T10:22:43;25.70;81.40
11136;DHT22;5622;50.840;4.948;2022-07-04T10:25:10;25.60;80.50
11136;DHT22;5622;50.840;4.948;2022-07-04T10:27:38;25.70;80.00
11136;DHT22;5622;50.840;4.948;2022-07-04T10:30:07;25.60;81.00
11136;DHT22;5622;50.840;4.948;2022-07-04T10:32:36;25.40;77.90
11136;DHT22;5622;50.840;4.948;2022-07-04T10:35:06;25.20;77.00
11136;DHT22;5622;50.840;4.948;2022-07-04T10:37:58;25.10;76.10
11136;DHT22;5622;50.840;4.948;2022-07-04T10:40:46;25.00;75.50
11136;DHT22;5622;50.840;4.948;2022-07-04T10:46:36;24.80;74.70
11136;DHT22;5622;50.840;4.948;2022-07-04T10:49:06;24.50;80.00
11136;DHT22;5622;50.840;4.948;2022-07-04T10:51:47;24.60;88.00
11136;DHT22;5622;50.840;4.948;2022-07-04T10:54:15;24.70;82.00
11136;DHT22;5622;50.840;4.948;2022-07-04T10:56:47;24.80;78.80
11136;DHT22;5622;50.840;4.948;2022-07-04T10:59:17;25.00;83.80
11136;DHT22;5622;50.840;4.948;2022-07-04T11:01:48;25.00;78.60
11136;DHT22;5622;50.840;4.948;2022-07-04T11:04:44;24.80;75.30
11136;DHT22;5622;50.840;4.948;2022-07-04T11:07:13;25.10;81.50
11136;DHT22;5622;50.840;4.948;2022-07-04T11:09:41;25.40;79.60
11136;DHT22;5622;50.840;4.948;2022-07-04T11:12:09;25.50;77.30
11136;DHT22;5622;50.840;4.948;2022-07-04T11:14:40;25.70;78.10
11136;DHT22;5622;50.840;4.948;2022-07-04T11:17:09;25.90;76.80
11136;DHT22;5622;50.840;4.948;2022-07-04T11:19:36;25.90;75.00
11136;DHT22;5622;50.840;4.948;2022-07-04T11:22:04;25.90;76.30
11136;DHT22;5622;50.840;4.948;2022-07-04T11:24:33;25.70;73.30
11136;DHT22;5622;50.840;4.948;2022-07-04T11:27:01;25.60;74.90
11136;DHT22;5622;50.840;4.948;2022-07-04T11:29:29;25.30;72.50
11136;DHT22;5622;50.840;4.948;2022-07-04T11:31:56;25.20;74.30
11136;DHT22;5622;50.840;4.948;2022-07-04T11:34:23;25.00;74.90
11136;DHT22;5622;50.840;4.948;2022-07-04T11:36:51;25.00;76.70
11136;DHT22;5622;50.840;4.948;2022-07-04T11:39:20;24.80;76.50
11136;DHT22;5622;50.840;4.948;2022-07-04T11:41:51;24.60;75.90
11136;DHT22;5622;50.840;4.948;2022-07-04T11:44:37;24.40;74.90
11136;DHT22;5622;50.840;4.948;2022-07-04T11:47:22;24.30;76.80
11136;DHT22;5622;50.840;4.948;2022-07-04T11:49:52;24.20;75.90
11136;DHT22;5622;50.840;4.948;2022-07-04T11:52:21;24.10;74.20
11136;DHT22;5622;50.840;4.948;2022-07-04T11:54:49;24.10;78.30
11136;DHT22;5622;50.840;4.948;2022-07-04T11:57:20;24.10;78.50
11136;DHT22;5622;50.840;4.948;2022-07-04T11:59:57;24.10;81.10
11136;DHT22;5622;50.840;4.948;2022-07-04T12:02:25;24.00;79.40
11136;DHT22;5622;50.840;4.948;2022-07-04T12:04:53;24.00;78.80
11136;DHT22;5622;50.840;4.948;2022-07-04T12:07:21;24.00;78.30
11136;DHT22;5622;50.840;4.948;2022-07-04T12:09:49;23.90;72.20
11136;DHT22;5622;50.840;4.948;2022-07-04T12:12:18;23.90;75.30
11136;DHT22;5622;50.840;4.948;2022-07-04T12:15:03;23.80;74.20
11136;DHT22;5622;50.840;4.948;2022-07-04T12:17:35;23.80;77.60
11136;DHT22;5622;50.840;4.948;2022-07-04T12:20:11;23.80;80.10
11136;DHT22;5622;50.840;4.948;2022-07-04T12:22:41;23.80;79.30
11136;DHT22;5622;50.840;4.948;2022-07-04T12:25:24;23.90;77.50
11136;DHT22;5622;50.840;4.948;2022-07-04T12:27:54;23.90;77.20
11136;DHT22;5622;50.840;4.948;2022-07-04T12:30:22;23.90;79.40
11136;DHT22;5622;50.840;4.948;2022-07-04T12:32:51;24.00;78.50
11136;DHT22;5622;50.840;4.948;2022-07-04T12:35:44;24.00;79.00
11136;DHT22;5622;50.840;4.948;2022-07-04T12:38:15;24.10;80.40
11136;DHT22;5622;50.840;4.948;2022-07-04T12:40:54;24.10;78.70
11136;DHT22;5622;50.840;4.948;2022-07-04T12:43:24;24.10;78.70
11136;DHT22;5622;50.840;4.948;2022-07-04T12:45:53;24.10;79.40
11136;DHT22;5622;50.840;4.948;2022-07-04T12:48:26;24.00;77.90
11136;DHT22;5622;50.840;4.948;2022-07-04T12:50:54;23.90;79.10
11136;DHT22;5622;50.840;4.948;2022-07-04T12:53:21;23.90;77.40
11136;DHT22;5622;50.840;4.948;2022-07-04T12:55:49;23.80;78.40
11136;DHT22;5622;50.840;4.948;2022-07-04T12:58:16;23.80;80.40
11136;DHT22;5622;50.840;4.948;2022-07-04T13:00:45;23.70;84.60
11136;DHT22;5622;50.840;4.948;2022-07-04T13:03:12;23.80;76.00
11136;DHT22;5622;50.840;4.948;2022-07-04T13:05:39;23.70;77.50
11136;DHT22;5622;50.840;4.948;2022-07-04T13:08:07;23.70;78.20
11136;DHT22;5622;50.840;4.948;2022-07-04T13:10:34;23.70;78.00
11136;DHT22;5622;50.840;4.948;2022-07-04T13:13:01;23.70;77.20
11136;DHT22;5622;50.840;4.948;2022-07-04T13:15:29;23.70;78.00
11136;DHT22;5622;50.840;4.948;2022-07-04T13:17:58;23.80;78.80
11136;DHT22;5622;50.840;4.948;2022-07-04T13:20:25;23.80;77.10
11136;DHT22;5622;50.840;4.948;2022-07-04T13:22:52;23.90;76.30
11136;DHT22;5622;50.840;4.948;2022-07-04T13:25:19;23.90;75.70
11136;DHT22;5622;50.840;4.948;2022-07-04T13:27:47;24.00;77.10
11136;DHT22;5622;50.840;4.948;2022-07-04T13:30:15;24.00;78.30
11136;DHT22;5622;50.840;4.948;2022-07-04T13:32:42;24.00;77.60
11136;DHT22;5622;50.840;4.948;2022-07-04T13:35:10;24.00;78.30
11136;DHT22;5622;50.840;4.948;2022-07-04T13:37:37;24.00;78.90
11136;DHT22;5622;50.840;4.948;2022-07-04T13:40:06;24.00;80.70
11136;DHT22;5622;50.840;4.948;2022-07-04T13:42:33;24.00;79.90
11136;DHT22;5622;50.840;4.948;2022-07-04T13:45:18;24.10;81.40
11136;DHT22;5622;50.840;4.948;2022-07-04T13:47:45;24.00;76.10
11136;DHT22;5622;50.840;4.948;2022-07-04T13:50:13;24.00;73.90
11136;DHT22;5622;50.840;4.948;2022-07-04T13:52:41;23.90;74.20
11136;DHT22;5622;50.840;4.948;2022-07-04T13:55:08;23.90;75.80
11136;DHT22;5622;50.840;4.948;2022-07-04T13:57:36;23.80;75.70
11136;DHT22;5622;50.840;4.948;2022-07-04T14:00:04;23.80;74.30
11136;DHT22;5622;50.840;4.948;2022-07-04T14:02:32;23.90;75.20
11136;DHT22;5622;50.840;4.948;2022-07-04T14:04:59;23.90;76.50
11136;DHT22;5622;50.840;4.948;2022-07-04T14:07:28;24.00;76.20
11136;DHT22;5622;50.840;4.948;2022-07-04T14:09:55;23.90;75.40
11136;DHT22;5622;50.840;4.948;2022-07-04T14:12:22;23.80;73.40
11136;DHT22;5622;50.840;4.948;2022-07-04T14:14:49;23.80;75.10
11136;DHT22;5622;50.840;4.948;2022-07-04T14:17:16;23.70;75.10
11136;DHT22;5622;50.840;4.948;2022-07-04T14:19:44;23.70;76.60
11136;DHT22;5622;50.840;4.948;2022-07-04T14:22:11;23.70;76.50
11136;DHT22;5622;50.840;4.948;2022-07-04T14:24:39;23.60;75.20
11136;DHT22;5622;50.840;4.948;2022-07-04T14:27:06;23.70;76.00
11136;DHT22;5622;50.840;4.948;2022-07-04T14:29:35;23.60;77.40
11136;DHT22;5622;50.840;4.948;2022-07-04T14:32:03;23.60;77.30
11136;DHT22;5622;50.840;4.948;2022-07-04T14:34:30;23.70;79.40
11136;DHT22;5622;50.840;4.948;2022-07-04T14:36:57;23.70;77.00
11136;DHT22;5622;50.840;4.948;2022-07-04T14:39:24;23.80;77.70
11136;DHT22;5622;50.840;4.948;2022-07-04T14:41:54;23.80;74.30
11136;DHT22;5622;50.840;4.948;2022-07-04T14:44:21;23.80;76.60
11136;DHT22;5622;50.840;4.948;2022-07-04T14:46:48;23.90;76.70
11136;DHT22;5622;50.840;4.948;2022-07-04T14:49:15;23.90;75.00
11136;DHT22;5622;50.840;4.948;2022-07-04T14:51:42;23.80;75.20
11136;DHT22;5622;50.840;4.948;2022-07-04T14:54:12;23.80;74.10
11136;DHT22;5622;50.840;4.948;2022-07-04T14:56:39;23.80;75.30
11136;DHT22;5622;50.840;4.948;2022-07-04T14:59:07;23.80;74.30
11136;DHT22;5622;50.840;4.948;2022-07-04T15:01:35;23.70;77.60
11136;DHT22;5622;50.840;4.948;2022-07-04T15:04:02;23.70;76.10
11136;DHT22;5622;50.840;4.948;2022-07-04T15:06:29;23.70;75.40
11136;DHT22;5622;50.840;4.948;2022-07-04T15:08:56;23.70;74.30
11136;DHT22;5622;50.840;4.948;2022-07-04T15:11:23;23.60;74.80
11136;DHT22;5622;50.840;4.948;2022-07-04T15:13:51;23.50;76.90
11136;DHT22;5622;50.840;4.948;2022-07-04T15:16:19;23.50;75.20
11136;DHT22;5622;50.840;4.948;2022-07-04T15:18:46;23.50;73.60
11136;DHT22;5622;50.840;4.948;2022-07-04T15:21:13;23.50;74.20
11136;DHT22;5622;50.840;4.948;2022-07-04T15:23:58;23.50;73.20
11136;DHT22;5622;50.840;4.948;2022-07-04T15:26:41;23.60;73.00
11136;DHT22;5622;50.840;4.948;2022-07-04T15:29:09;23.70;73.80
11136;DHT22;5622;50.840;4.948;2022-07-04T15:31:38;23.70;73.50
11136;DHT22;5622;50.840;4.948;2022-07-04T15:34:05;23.80;74.40
11136;DHT22;5622;50.840;4.948;2022-07-04T15:36:32;23.80;74.30
11136;DHT22;5622;50.840;4.948;2022-07-04T15:39:03;23.80;76.10
11136;DHT22;5622;50.840;4.948;2022-07-04T15:41:31;23.80;75.90
11136;DHT22;5622;50.840;4.948;2022-07-04T15:43:59;23.80;74.20
11136;DHT22;5622;50.840;4.948;2022-07-04T15:46:28;23.70;72.60
11136;DHT22;5622;50.840;4.948;2022-07-04T15:48:56;23.70;74.20
11136;DHT22;5622;50.840;4.948;2022-07-04T15:51:23;23.70;74.20
11136;DHT22;5622;50.840;4.948;2022-07-04T15:53:50;23.70;72.60
11136;DHT22;5622;50.840;4.948;2022-07-04T15:56:17;23.60;73.60
11136;DHT22;5622;50.840;4.948;2022-07-04T15:58:46;23.60;74.10